Terminal Aerodrome Forecast
Issued by NWS

Home | Current Version | Previous Version | Text Only | Print | Product List | Glossary On
Versions: 1 2 3 4 5 6 7 8 9 10 11 12 13 14 15
000
FTUS46 KSEW 202300 RRA
TAFBLI
TAF
KBLI 202349Z 2100/2124 15005KT P6SM VCSH BKN020 OVC030
      TEMPO 2100/2104 -SHRA
     FM210400 16006KT P6SM BKN030 OVC045
     FM210700 16008KT P6SM OVC025
     FM211200 16012KT 6SM -RA BR OVC020
     FM211800 16015G25KT 6SM -RA BR OVC020=

USA.gov is the U.S. government's official web portal to all federal, state and local government web resources and services.